Time;durP1;ratioP1;P1;durP2;ratioP2;P2;SDS_P1;SDS_P2;PMS_P1;PMS_P2;Temp;Humidity;BMP_temperature;BMP_pressure;BME280_temperature;BME280_humidity;BME280_pressure;Samples;Min_cycle;Max_cycle;Signal;HPM_P1;HPM_P2
2022/01/20 00:01:59;;;;;;;17.58;2.90;;;;;;;-145.76;100.00;65039.31;4927569;28;20086;-73
2022/01/20 00:04:34;;;;;;;23.58;3.00;;;;;;;-145.76;100.00;65039.31;4910258;28;20082;-71
2022/01/20 00:07:26;;;;;;;27.42;3.67;;;;;;;-145.76;100.00;65039.31;4928861;28;20046;-71
2022/01/20 00:23:07;;;;;;;18.60;2.30;;;;;;;-145.76;100.00;65039.31;4914444;28;20074;-72
2022/01/20 00:25:54;;;;;;;17.75;2.83;;;;;;;-145.76;100.00;65039.31;4918030;28;20065;-72
2022/01/20 00:26:41;;;;;;;19.95;2.55;;;;;;;-145.76;100.00;65039.31;4927922;28;20034;-72
2022/01/20 00:29:13;;;;;;;21.33;3.05;;;;;;;-145.76;100.00;65039.31;4911675;28;20086;-72
2022/01/20 00:31:50;;;;;;;19.25;2.65;;;;;;;-145.76;100.00;65039.31;4927374;28;20038;-72
2022/01/20 00:34:31;;;;;;;19.98;2.28;;;;;;;-145.76;100.00;65039.31;4912051;28;20047;-72
2022/01/20 00:37:16;;;;;;;23.17;3.45;;;;;;;-145.76;100.00;65039.31;4926390;28;20049;-72
2022/01/20 00:39:41;;;;;;;14.23;1.95;;;;;;;-145.76;100.00;65039.31;4921037;28;20089;-72
2022/01/20 00:42:08;;;;;;;19.70;2.58;;;;;;;-145.76;100.00;65039.31;4915516;28;20059;-72
2022/01/20 00:44:34;;;;;;;20.20;2.92;;;;;;;-145.76;100.00;65039.31;4926883;28;20034;-72
2022/01/20 00:46:59;;;;;;;18.15;2.40;;;;;;;-145.76;100.00;65039.31;4911636;28;20570;-72
2022/01/20 00:49:25;;;;;;;32.17;2.92;;;;;;;-145.76;100.00;65039.31;4926600;28;20113;-72
2022/01/20 00:51:50;;;;;;;19.10;2.88;;;;;;;-145.76;100.00;65039.31;4920874;28;20053;-72
2022/01/20 00:54:16;;;;;;;16.85;2.78;;;;;;;-145.76;100.00;65039.31;4916534;28;20058;-72
2022/01/20 00:56:41;;;;;;;14.07;2.25;;;;;;;-145.76;100.00;65039.31;4927335;28;21759;-70
2022/01/20 00:59:07;;;;;;;25.70;2.83;;;;;;;-145.76;100.00;65039.31;4909828;28;20061;-72
2022/01/20 01:01:32;;;;;;;26.35;3.35;;;;;;;-145.76;100.00;65039.31;4927049;28;23863;-72
2022/01/20 01:03:58;;;;;;;28.58;2.83;;;;;;;-145.76;100.00;65039.31;4911234;28;20046;-73
2022/01/20 01:09:21;;;;;;;24.58;3.22;;;;;;;-145.76;100.00;65039.31;4910533;28;20054;-72
2022/01/20 01:11:48;;;;;;;21.20;2.67;;;;;;;-145.76;100.00;65039.31;4915131;28;20061;-72
2022/01/20 01:14:16;;;;;;;38.15;6.57;;;;;;;-145.76;100.00;65039.31;4925207;28;20084;-73
2022/01/20 01:20:06;;;;;;;25.08;3.00;;;;;;;-145.76;100.00;65039.31;4893732;28;21573;-74
2022/01/20 01:22:21;;;;;;;22.38;2.85;;;;;;;-145.76;100.00;65039.31;4910391;28;20077;-73
2022/01/20 01:24:52;;;;;;;11.73;1.60;;;;;;;-145.76;100.00;65039.31;4909654;28;20057;-74
2022/01/20 01:27:18;;;;;;;13.63;1.55;;;;;;;-145.76;100.00;65039.31;4925332;28;20113;-73
2022/01/20 01:32:12;;;;;;;6.00;1.02;;;;;;;-145.76;100.00;65039.31;4940589;28;20157;-73
2022/01/20 01:34:41;;;;;;;13.10;1.50;;;;;;;-145.76;100.00;65039.31;4910296;28;20061;-73
2022/01/20 01:37:23;;;;;;;17.38;5.95;;;;;;;-145.76;100.00;65039.31;4922968;28;20129;-72
2022/01/20 01:39:49;;;;;;;19.30;7.22;;;;;;;-145.76;100.00;65039.31;4917679;28;20066;-72
2022/01/20 01:42:20;;;;;;;58.13;17.75;;;;;;;-145.76;100.00;65039.31;4916892;28;20074;-72
2022/01/20 01:44:45;;;;;;;50.35;20.17;;;;;;;-145.76;100.00;65039.31;4927172;28;20487;-72
2022/01/20 01:47:11;;;;;;;50.72;14.80;;;;;;;-145.76;100.00;65039.31;4910795;28;20114;-72
2022/01/20 01:49:36;;;;;;;40.88;11.40;;;;;;;-145.76;100.00;65039.31;4925321;28;20031;-72
2022/01/20 01:52:02;;;;;;;51.50;13.25;;;;;;;-145.76;100.00;65039.31;4920490;28;20153;-72
2022/01/20 01:54:28;;;;;;;57.60;14.07;;;;;;;-145.76;100.00;65039.31;4916492;28;20174;-70
2022/01/20 01:56:53;;;;;;;52.65;14.20;;;;;;;-145.76;100.00;65039.31;4923183;28;20126;-71
2022/01/20 01:59:19;;;;;;;56.95;20.00;;;;;;;-145.76;100.00;65039.31;4891509;28;20047;-72
2022/01/20 02:01:44;;;;;;;59.53;22.98;;;;;;;-145.76;100.00;65039.31;4923382;28;20066;-71
2022/01/20 02:04:19;;;;;;;48.47;13.20;;;;;;;-145.76;100.00;65039.31;4914604;28;21643;-72
2022/01/20 02:07:05;;;;;;;17.35;2.95;;;;;;;-145.76;100.00;65039.31;4914765;28;20050;-73
2022/01/20 02:17:58;;;;;;;14.73;2.08;;;;;;;-145.76;100.00;65039.31;4910687;28;20058;-72
2022/01/20 02:20:24;;;;;;;14.65;2.28;;;;;;;-145.76;100.00;65039.31;4925100;28;20038;-73
2022/01/20 02:22:51;;;;;;;29.23;3.05;;;;;;;-145.76;100.00;65039.31;4911313;28;20046;-72
2022/01/20 02:25:29;;;;;;;18.27;2.50;;;;;;;-145.76;100.00;65039.31;4924023;28;20039;-74
2022/01/20 02:27:55;;;;;;;14.77;2.67;;;;;;;-145.76;100.00;65039.31;4923561;28;20058;-74
2022/01/20 02:30:23;;;;;;;16.25;2.13;;;;;;;-145.76;100.00;65039.31;4914094;28;20101;-72
2022/01/20 02:32:53;;;;;;;25.35;2.83;;;;;;;-145.76;100.00;65039.31;4939353;28;20066;-73
2022/01/20 02:35:18;;;;;;;29.95;2.83;;;;;;;-145.76;100.00;65039.31;4925544;28;20154;-73
2022/01/20 02:37:47;;;;;;;16.83;2.55;;;;;;;-145.76;100.00;65039.31;4925679;28;20093;-73
2022/01/20 02:45:24;;;;;;;;;;;;;;;-145.76;100.00;65039.31;4925540;28;20034;-72
2022/01/20 02:47:50;;;;;;;26.95;3.05;;;;;;;-145.76;100.00;65039.31;4925036;28;20025;-71
2022/01/20 02:50:16;;;;;;;35.10;4.18;;;;;;;-145.76;100.00;65039.31;4924146;28;20034;-72
2022/01/20 02:52:41;;;;;;;23.27;3.40;;;;;;;-145.76;100.00;65039.31;4920460;28;20097;-72
2022/01/20 02:55:07;;;;;;;25.67;3.45;;;;;;;-145.76;100.00;65039.31;4916120;28;20047;-72
2022/01/20 02:57:33;;;;;;;34.47;4.57;;;;;;;-145.76;100.00;65039.31;4926342;28;20054;-71
2022/01/20 02:59:58;;;;;;;28.45;3.92;;;;;;;-145.76;100.00;65039.31;4912030;28;20065;-71
2022/01/20 03:02:24;;;;;;;33.47;4.30;;;;;;;-145.76;100.00;65039.31;4926301;28;20047;-71
2022/01/20 03:04:51;;;;;;;30.52;3.95;;;;;;;-145.76;100.00;65039.31;4914645;28;20094;-72
2022/01/20 03:07:17;;;;;;;44.95;5.93;;;;;;;-145.76;100.00;65039.31;4925638;28;21106;-72
2022/01/20 03:09:42;;;;;;;29.55;4.47;;;;;;;-145.76;100.00;65039.31;4924081;28;20059;-72
2022/01/20 03:12:08;;;;;;;36.28;4.55;;;;;;;-145.76;100.00;65039.31;4892721;28;20047;-71
2022/01/20 03:14:33;;;;;;;26.15;3.55;;;;;;;-145.76;100.00;65039.31;4932586;28;20030;-75
2022/01/20 03:16:59;;;;;;;26.55;3.92;;;;;;;-145.76;100.00;65039.31;4919317;28;20043;-76
2022/01/20 03:19:24;;;;;;;20.75;3.55;;;;;;;-145.76;100.00;65039.31;4937661;28;20186;-74
2022/01/20 03:21:49;;;;;;;24.15;3.25;;;;;;;-145.76;100.00;65039.31;4935763;28;20052;-74
2022/01/20 03:24:15;;;;;;;29.50;5.18;;;;;;;-145.76;100.00;65039.31;4919148;28;20094;-75
2022/01/20 03:26:41;;;;;;;23.92;3.78;;;;;;;-145.76;100.00;65039.31;4933974;28;20039;-74
2022/01/20 03:29:06;;;;;;;31.90;4.07;;;;;;;-145.76;100.00;65039.31;4924432;28;21803;-75
2022/01/20 03:31:32;;;;;;;27.52;3.95;;;;;;;-145.76;100.00;65039.31;4940283;28;20756;-74
2022/01/20 03:33:58;;;;;;;33.55;4.43;;;;;;;-145.76;100.00;65039.31;4941166;28;22533;-74
2022/01/20 03:36:24;;;;;;;32.90;4.65;;;;;;;-145.76;100.00;65039.31;4939403;28;20078;-74
2022/01/20 03:38:50;;;;;;;30.98;5.40;;;;;;;-145.76;100.00;65039.31;4937060;28;20039;-74
2022/01/20 03:41:16;;;;;;;29.58;4.72;;;;;;;-145.76;100.00;65039.31;4905260;28;20127;-74
2022/01/20 03:43:42;;;;;;;32.05;4.22;;;;;;;-145.76;100.00;65039.31;4935814;28;20442;-74
2022/01/20 03:46:12;;;;;;;31.63;4.35;;;;;;;-145.76;100.00;65039.31;4933161;28;20085;-74
2022/01/20 03:48:49;;;;;;;37.58;4.88;;;;;;;-145.76;100.00;65039.31;4918512;28;20050;-74
2022/01/20 03:51:21;;;;;;;18.23;3.20;;;;;;;-145.76;100.00;65039.31;4926840;28;20038;-73
2022/01/20 03:53:49;;;;;;;22.70;2.83;;;;;;;-145.76;100.00;65039.31;4912184;28;20490;-75
2022/01/20 03:56:16;;;;;;;18.67;2.65;;;;;;;-145.76;100.00;65039.31;4925602;28;20073;-74
2022/01/20 03:58:42;;;;;;;18.63;2.67;;;;;;;-145.76;100.00;65039.31;4919381;28;20027;-75
2022/01/20 04:01:07;;;;;;;20.65;2.72;;;;;;;-145.76;100.00;65039.31;4919825;28;22791;-74
2022/01/20 04:03:33;;;;;;;19.25;3.65;;;;;;;-145.76;100.00;65039.31;4926337;28;20733;-74
2022/01/20 04:05:59;;;;;;;14.98;2.97;;;;;;;-145.76;100.00;65039.31;4914701;28;22804;-74
2022/01/20 04:08:26;;;;;;;22.40;3.92;;;;;;;-145.76;100.00;65039.31;4926541;28;20141;-74
2022/01/20 04:10:52;;;;;;;22.17;4.15;;;;;;;-145.76;100.00;65039.31;4922570;28;20039;-76
2022/01/20 04:13:18;;;;;;;16.95;3.60;;;;;;;-145.76;100.00;65039.31;4915726;28;20146;-74
2022/01/20 04:15:44;;;;;;;19.73;2.97;;;;;;;-145.76;100.00;65039.31;4909312;28;20086;-75
2022/01/20 04:18:19;;;;;;;19.75;3.40;;;;;;;-145.76;100.00;65039.31;4910902;28;20694;-75
2022/01/20 04:20:45;;;;;;;21.73;3.08;;;;;;;-145.76;100.00;65039.31;4924030;28;20078;-73
2022/01/20 04:23:10;;;;;;;19.60;3.03;;;;;;;-145.76;100.00;65039.31;4919849;28;20045;-73
2022/01/20 04:25:36;;;;;;;16.25;3.03;;;;;;;-145.76;100.00;65039.31;4916556;28;20058;-76
2022/01/20 04:28:01;;;;;;;16.50;2.92;;;;;;;-145.76;100.00;65039.31;4940270;28;20022;-76
2022/01/20 04:30:28;;;;;;;17.50;2.70;;;;;;;-145.76;100.00;65039.31;4927619;28;20086;-74
2022/01/20 04:32:53;;;;;;;24.15;3.33;;;;;;;-145.76;100.00;65039.31;4926249;28;20031;-74
2022/01/20 04:35:20;;;;;;;20.73;2.92;;;;;;;-145.76;100.00;65039.31;4919674;28;20149;-76
2022/01/20 04:37:48;;;;;;;21.65;3.05;;;;;;;-145.76;100.00;65039.31;4918277;28;20051;-74
2022/01/20 04:40:14;;;;;;;17.65;3.25;;;;;;;-145.76;100.00;65039.31;4924756;28;20034;-75
2022/01/20 04:42:41;;;;;;;16.33;3.00;;;;;;;-145.76;100.00;65039.31;4913134;28;20054;-74
2022/01/20 04:45:10;;;;;;;16.77;3.35;;;;;;;-145.76;100.00;65039.31;4924477;28;20035;-75
2022/01/20 04:58:27;;;;;;;28.33;3.78;;;;;;;-145.76;100.00;65039.31;4928296;28;20129;-76
2022/01/20 05:00:53;;;;;;;20.50;4.15;;;;;;;-145.76;100.00;65039.31;4911327;28;20078;-74
2022/01/20 05:03:18;;;;;;;22.40;3.60;;;;;;;-145.76;100.00;65039.31;4909749;28;20034;-75
2022/01/20 05:05:44;;;;;;;19.60;3.20;;;;;;;-145.76;100.00;65039.31;4909494;28;20395;-76
2022/01/20 05:08:10;;;;;;;22.33;3.47;;;;;;;-145.76;100.00;65039.31;4926846;28;20038;-75
2022/01/20 05:10:35;;;;;;;28.35;4.00;;;;;;;-145.76;100.00;65039.31;4926821;28;20435;-75
2022/01/20 05:13:21;;;;;;;18.02;3.00;;;;;;;-145.76;100.00;65039.31;4910234;28;20058;-75
2022/01/20 05:15:47;;;;;;;16.02;3.08;;;;;;;-145.76;100.00;65039.31;4925775;28;20172;-76
2022/01/20 05:18:12;;;;;;;18.05;2.55;;;;;;;-145.76;100.00;65039.31;4911961;28;20534;-76
2022/01/20 05:20:38;;;;;;;25.17;2.95;;;;;;;-145.76;100.00;65039.31;4926380;28;20414;-75
2022/01/20 05:23:03;;;;;;;22.63;3.47;;;;;;;-145.76;100.00;65039.31;4924449;28;20034;-75
2022/01/20 05:25:29;;;;;;;20.92;3.10;;;;;;;-145.76;100.00;65039.31;4915523;28;20059;-75
2022/01/20 05:27:54;;;;;;;23.13;4.45;;;;;;;-145.76;100.00;65039.31;4926823;28;20085;-75
2022/01/20 05:30:20;;;;;;;14.90;2.80;;;;;;;-145.76;100.00;65039.31;4908810;28;20506;-75
2022/01/20 05:32:45;;;;;;;14.93;3.13;;;;;;;-145.76;100.00;65039.31;4923515;28;20038;-75
2022/01/20 05:35:11;;;;;;;16.15;2.17;;;;;;;-145.76;100.00;65039.31;4921379;28;20035;-73
2022/01/20 05:37:36;;;;;;;18.40;2.83;;;;;;;-145.76;100.00;65039.31;4915780;28;20073;-74
2022/01/20 05:40:03;;;;;;;17.88;3.15;;;;;;;-145.76;100.00;65039.31;4926576;28;20083;-75
2022/01/20 05:42:28;;;;;;;23.10;2.55;;;;;;;-145.76;100.00;65039.31;4911055;28;20570;-74
2022/01/20 05:44:54;;;;;;;18.52;3.25;;;;;;;-145.76;100.00;65039.31;4925983;28;20030;-75
2022/01/20 05:47:27;;;;;;;18.73;2.83;;;;;;;-145.76;100.00;65039.31;4904835;28;20050;-75
2022/01/20 05:49:52;;;;;;;15.48;2.30;;;;;;;-145.76;100.00;65039.31;4914511;28;20050;-74
2022/01/20 05:52:19;;;;;;;22.98;3.20;;;;;;;-145.76;100.00;65039.31;4924300;28;20046;-75
2022/01/20 05:54:44;;;;;;;18.58;2.97;;;;;;;-145.76;100.00;65039.31;4910800;28;20062;-74
2022/01/20 05:57:10;;;;;;;22.70;3.33;;;;;;;-145.76;100.00;65039.31;4926607;28;20038;-74
2022/01/20 05:59:37;;;;;;;23.55;3.22;;;;;;;-145.76;100.00;65039.31;4921996;28;21001;-75
2022/01/20 06:02:11;;;;;;;19.73;3.28;;;;;;;-145.76;100.00;65039.31;4914601;28;20178;-74
2022/01/20 06:04:37;;;;;;;21.20;3.15;;;;;;;-145.76;100.00;65039.31;4909581;28;20054;-73
2022/01/20 06:07:02;;;;;;;18.70;2.65;;;;;;;-145.76;100.00;65039.31;4911220;28;20062;-73
2022/01/20 06:09:28;;;;;;;21.38;2.35;;;;;;;-145.76;100.00;65039.31;4909950;28;21170;-72
2022/01/20 06:11:53;;;;;;;10.23;2.53;;;;;;;-145.76;100.00;65039.31;4920609;28;20047;-75
2022/01/20 06:14:19;;;;;;;27.65;3.72;;;;;;;-145.76;100.00;65039.31;4915072;28;20129;-74
2022/01/20 06:16:44;;;;;;;32.10;3.83;;;;;;;-145.76;100.00;65039.31;4925584;28;20031;-73
2022/01/20 06:19:10;;;;;;;14.88;2.58;;;;;;;-145.76;100.00;65039.31;4911084;28;20057;-74
2022/01/20 06:21:35;;;;;;;22.13;3.55;;;;;;;-145.76;100.00;65039.31;4907119;28;20066;-75
2022/01/20 06:24:00;;;;;;;19.63;3.47;;;;;;;-145.76;100.00;65039.31;4907520;28;20047;-75
2022/01/20 06:26:26;;;;;;;21.70;3.88;;;;;;;-145.76;100.00;65039.31;4925293;28;20082;-73
2022/01/20 06:28:51;;;;;;;14.18;2.38;;;;;;;-145.76;100.00;65039.31;4923280;28;20557;-74
2022/01/20 06:31:17;;;;;;;17.52;2.72;;;;;;;-145.76;100.00;65039.31;4911757;28;20061;-74
2022/01/20 06:33:42;;;;;;;24.30;3.65;;;;;;;-145.76;100.00;65039.31;4906675;28;20730;-74
2022/01/20 06:36:08;;;;;;;26.50;3.78;;;;;;;-145.76;100.00;65039.31;4906918;28;20545;-75
2022/01/20 06:38:33;;;;;;;29.20;4.25;;;;;;;-145.76;100.00;65039.31;4924631;28;20515;-75
2022/01/20 06:40:59;;;;;;;24.00;4.10;;;;;;;-145.76;100.00;65039.31;4923218;28;20042;-75
2022/01/20 06:43:24;;;;;;;15.77;3.20;;;;;;;-145.76;100.00;65039.31;4908839;28;20062;-74
2022/01/20 06:45:50;;;;;;;14.73;2.53;;;;;;;-145.76;100.00;65039.31;4924470;28;20062;-73
2022/01/20 06:48:16;;;;;;;20.17;3.28;;;;;;;-145.76;100.00;65039.31;4904648;28;20055;-73
2022/01/20 06:50:41;;;;;;;24.30;4.30;;;;;;;-145.76;100.00;65039.31;4909202;28;20034;-75
2022/01/20 06:53:06;;;;;;;19.48;3.70;;;;;;;-145.76;100.00;65039.31;4923073;28;20484;-73
2022/01/20 06:55:34;;;;;;;22.25;4.53;;;;;;;-145.76;100.00;65039.31;4907493;28;20077;-73
2022/01/20 06:57:59;;;;;;;28.05;3.28;;;;;;;-145.76;100.00;65039.31;4924154;28;20046;-74
2022/01/20 07:00:25;;;;;;;28.15;3.90;;;;;;;-145.76;100.00;65039.31;4906623;28;20058;-74
2022/01/20 07:02:51;;;;;;;20.48;3.70;;;;;;;-145.76;100.00;65039.31;4920606;28;20070;-72
2022/01/20 07:05:18;;;;;;;23.63;4.22;;;;;;;-145.76;100.00;65039.31;4924341;28;20580;-76
2022/01/20 07:07:44;;;;;;;12.88;2.08;;;;;;;-145.76;100.00;65039.31;4908963;28;20066;-74
2022/01/20 07:10:11;;;;;;;24.83;3.17;;;;;;;-145.76;100.00;65039.31;4922269;28;20047;-74
2022/01/20 07:12:38;;;;;;;18.90;2.90;;;;;;;-145.76;100.00;65039.31;4908249;28;20059;-74
2022/01/20 07:15:04;;;;;;;14.00;3.05;;;;;;;-145.76;100.00;65039.31;4923173;28;20503;-74
2022/01/20 07:17:29;;;;;;;22.05;3.78;;;;;;;-145.76;100.00;65039.31;4922810;28;20123;-75
2022/01/20 07:19:55;;;;;;;25.92;3.53;;;;;;;-145.76;100.00;65039.31;4905560;28;20059;-75
2022/01/20 07:22:20;;;;;;;19.70;3.00;;;;;;;-145.76;100.00;65039.31;4923323;28;20049;-75
2022/01/20 07:24:47;;;;;;;19.30;3.30;;;;;;;-145.76;100.00;65039.31;4908729;28;20613;-75
2022/01/20 07:27:14;;;;;;;33.53;3.50;;;;;;;-145.76;100.00;65039.31;4924730;28;20035;-75
2022/01/20 07:29:39;;;;;;;23.13;4.20;;;;;;;-145.76;100.00;65039.31;4922684;28;20860;-73
2022/01/20 07:32:06;;;;;;;28.08;3.10;;;;;;;-145.76;100.00;65039.31;4891176;28;20066;-74
2022/01/20 07:34:32;;;;;;;20.00;3.17;;;;;;;-145.76;100.00;65039.31;4924875;28;20027;-75
2022/01/20 07:36:57;;;;;;;28.83;4.00;;;;;;;-145.76;100.00;65039.31;4911255;28;20551;-75
2022/01/20 07:39:23;;;;;;;23.63;3.17;;;;;;;-145.76;100.00;65039.31;4926970;28;20046;-74
2022/01/20 07:41:48;;;;;;;31.50;4.55;;;;;;;-145.76;100.00;65039.31;4924307;28;20463;-74
2022/01/20 07:44:17;;;;;;;24.35;2.95;;;;;;;-145.76;100.00;65039.31;4907823;28;20573;-73
2022/01/20 07:46:43;;;;;;;19.20;2.80;;;;;;;-145.76;100.00;65039.31;4925907;28;20387;-75
2022/01/20 07:49:09;;;;;;;12.35;2.40;;;;;;;-145.76;100.00;65039.31;4894099;28;20533;-74
2022/01/20 07:51:34;;;;;;;14.50;2.03;;;;;;;-145.76;100.00;65039.31;4926856;28;20034;-76
2022/01/20 07:54:00;;;;;;;21.38;2.63;;;;;;;-145.76;100.00;65039.31;4923473;28;20079;-74
2022/01/20 07:56:25;;;;;;;11.38;1.77;;;;;;;-145.76;100.00;65039.31;4897928;28;20141;-75
2022/01/20 07:58:51;;;;;;;6.32;1.35;;;;;;;-145.76;100.00;65039.31;4927461;28;20698;-75
2022/01/20 08:01:16;;;;;;;8.98;1.38;;;;;;;-145.76;100.00;65039.31;4912478;28;20051;-75
2022/01/20 08:03:41;;;;;;;11.43;1.75;;;;;;;-145.76;100.00;65039.31;4926564;28;20042;-75
2022/01/20 08:06:07;;;;;;;13.32;2.38;;;;;;;-145.76;100.00;65039.31;4907459;28;22889;-75
2022/01/20 08:08:32;;;;;;;15.88;2.55;;;;;;;-145.76;100.00;65039.31;4915194;28;20059;-76
2022/01/20 08:10:58;;;;;;;12.07;2.33;;;;;;;-145.76;100.00;65039.31;4926376;28;20372;-76
2022/01/20 08:13:23;;;;;;;17.42;2.40;;;;;;;-145.76;100.00;65039.31;4911058;28;20113;-76
2022/01/20 08:15:49;;;;;;;19.08;2.38;;;;;;;-145.76;100.00;65039.31;4926520;28;20105;-76
2022/01/20 08:18:14;;;;;;;29.73;2.83;;;;;;;-145.76;100.00;65039.31;4919671;28;20034;-76
2022/01/20 08:20:40;;;;;;;15.38;2.13;;;;;;;-145.76;100.00;65039.31;4918430;28;20073;-78
2022/01/20 08:23:06;;;;;;;24.33;3.10;;;;;;;-145.76;100.00;65039.31;4925295;28;20058;-74
2022/01/20 08:25:33;;;;;;;20.55;3.42;;;;;;;-145.76;100.00;65039.31;4893083;28;20054;-79
2022/01/20 08:27:59;;;;;;;22.38;3.65;;;;;;;-145.76;100.00;65039.31;4924878;28;20464;-76
2022/01/20 08:30:25;;;;;;;22.83;3.22;;;;;;;-145.76;100.00;65039.31;4922384;28;20035;-75
2022/01/20 08:32:51;;;;;;;21.38;3.25;;;;;;;-145.76;100.00;65039.31;4883014;28;20062;-75
2022/01/20 08:35:18;;;;;;;23.17;4.10;;;;;;;-145.76;100.00;65039.31;4926502;28;20049;-75
2022/01/20 08:37:45;;;;;;;19.58;3.58;;;;;;;-145.76;100.00;65039.31;4914160;28;20138;-76
2022/01/20 08:40:13;;;;;;;22.88;2.63;;;;;;;-145.76;100.00;65039.31;4925688;28;20521;-77
2022/01/20 08:42:43;;;;;;;19.63;2.28;;;;;;;-145.76;100.00;65039.31;4917962;28;20051;-78
2022/01/20 08:45:11;;;;;;;15.48;2.92;;;;;;;-145.76;100.00;65039.31;4914567;28;20047;-77
2022/01/20 08:47:37;;;;;;;19.30;3.33;;;;;;;-145.76;100.00;65039.31;4925264;28;20031;-77
2022/01/20 08:50:05;;;;;;;19.90;3.03;;;;;;;-145.76;100.00;65039.31;4910505;28;20046;-76
2022/01/20 08:52:30;;;;;;;23.00;3.42;;;;;;;-145.76;100.00;65039.31;4928344;28;20053;-77
2022/01/20 08:54:58;;;;;;;16.25;2.85;;;;;;;-145.76;100.00;65039.31;4911342;28;20038;-77
2022/01/20 08:57:24;;;;;;;20.30;2.90;;;;;;;-145.76;100.00;65039.31;4926114;28;20030;-74
2022/01/20 08:59:50;;;;;;;21.48;2.88;;;;;;;-145.76;100.00;65039.31;4925094;28;20041;-77
2022/01/20 09:02:17;;;;;;;16.42;2.35;;;;;;;-145.76;100.00;65039.31;4911282;28;20051;-74
2022/01/20 09:04:42;;;;;;;27.23;4.97;;;;;;;-145.76;100.00;65039.31;4928644;28;20042;-75
2022/01/20 09:07:08;;;;;;;20.45;3.03;;;;;;;-145.76;100.00;65039.31;4915188;28;20089;-75
2022/01/20 09:09:40;;;;;;;14.93;2.90;;;;;;;-145.76;100.00;65039.31;4930073;28;20031;-75
2022/01/20 09:17:27;;;;;;;16.13;2.53;;;;;;;-145.76;100.00;65039.31;4925299;28;20049;-76
2022/01/20 09:19:53;;;;;;;16.13;2.47;;;;;;;-145.76;100.00;65039.31;4904274;28;20065;-76
2022/01/20 09:22:19;;;;;;;17.45;2.78;;;;;;;-145.76;100.00;65039.31;4923671;28;20102;-76
2022/01/20 09:24:45;;;;;;;21.00;2.85;;;;;;;-145.76;100.00;65039.31;4916374;28;20054;-75
2022/01/20 09:27:12;;;;;;;16.35;2.38;;;;;;;-145.76;100.00;65039.31;4911900;28;20185;-76
2022/01/20 09:29:37;;;;;;;20.83;3.05;;;;;;;-145.76;100.00;65039.31;4906148;28;20042;-75
2022/01/20 09:32:05;;;;;;;14.90;2.38;;;;;;;-145.76;100.00;65039.31;4908512;28;20246;-75
2022/01/20 09:34:30;;;;;;;20.42;4.32;;;;;;;-145.76;100.00;65039.31;4923676;28;20031;-74
2022/01/20 09:36:56;;;;;;;21.35;4.50;;;;;;;-145.76;100.00;65039.31;4918908;28;20070;-75
2022/01/20 09:39:21;;;;;;;16.80;3.72;;;;;;;-145.76;100.00;65039.31;4916621;28;20137;-74
2022/01/20 09:41:47;;;;;;;22.65;3.63;;;;;;;-145.76;100.00;65039.31;4923630;28;20097;-75
2022/01/20 09:44:13;;;;;;;24.33;3.30;;;;;;;-145.76;100.00;65039.31;4893807;28;20055;-76
2022/01/20 09:46:39;;;;;;;25.92;4.15;;;;;;;-145.76;100.00;65039.31;4909413;28;20043;-74
2022/01/20 09:49:05;;;;;;;42.67;5.43;;;;;;;-145.76;100.00;65039.31;4920152;28;20058;-75
2022/01/20 09:51:31;;;;;;;26.63;4.18;;;;;;;-145.76;100.00;65039.31;4930295;28;20070;-76
2022/01/20 09:53:56;;;;;;;14.95;2.75;;;;;;;-145.76;100.00;65039.31;4921975;28;20073;-75
2022/01/20 09:56:22;;;;;;;20.60;3.92;;;;;;;-145.76;100.00;65039.31;4907038;28;20059;-75
2022/01/20 09:58:48;;;;;;;20.67;3.97;;;;;;;-145.76;100.00;65039.31;4923639;28;20037;-75
2022/01/20 10:01:15;;;;;;;11.65;2.55;;;;;;;-145.76;100.00;65039.31;4914706;28;20438;-75
2022/01/20 10:03:45;;;;;;;22.02;3.22;;;;;;;-145.76;100.00;65039.31;4923921;28;20043;-77
2022/01/20 10:06:11;;;;;;;17.92;2.58;;;;;;;-145.76;100.00;65039.31;4923311;28;20534;-75
2022/01/20 10:08:36;;;;;;;17.50;3.28;;;;;;;-145.76;100.00;65039.31;4890502;28;20063;-75
2022/01/20 10:11:09;;;;;;;20.92;2.72;;;;;;;-145.76;100.00;65039.31;4908650;28;20105;-75
2022/01/20 10:13:40;;;;;;;19.58;3.65;;;;;;;-145.76;100.00;65039.31;4906385;28;20574;-76
2022/01/20 10:16:09;;;;;;;25.58;3.72;;;;;;;-145.76;100.00;65039.31;4922993;28;20069;-76
2022/01/20 10:18:53;;;;;;;23.13;3.45;;;;;;;-145.76;100.00;65039.31;4923979;28;20018;-76
2022/01/20 10:21:30;;;;;;;25.40;3.15;;;;;;;-145.76;100.00;65039.31;4915609;28;20069;-77
2022/01/20 10:24:04;;;;;;;26.63;4.13;;;;;;;-145.76;100.00;65039.31;4924399;28;20027;-79
2022/01/20 10:26:30;;;;;;;23.65;3.20;;;;;;;-145.76;100.00;65039.31;4908082;28;20051;-76
2022/01/20 10:28:59;;;;;;;23.15;4.25;;;;;;;-145.76;100.00;65039.31;4924697;28;20031;-76
2022/01/20 10:31:42;;;;;;;22.13;2.85;;;;;;;-145.76;100.00;65039.31;4900220;28;20054;-75
2022/01/20 10:34:20;;;;;;;22.45;4.13;;;;;;;-145.76;100.00;65039.31;4922926;28;20092;-75
2022/01/20 10:36:54;;;;;;;13.43;3.28;;;;;;;-145.76;100.00;65039.31;4938615;28;20046;-77
2022/01/20 10:39:29;;;;;;;14.82;2.63;;;;;;;-145.76;100.00;65039.31;4914301;28;20079;-75
2022/01/20 10:42:07;;;;;;;13.77;2.42;;;;;;;-145.76;100.00;65039.31;4924230;28;20035;-76
2022/01/20 10:44:58;;;;;;;22.42;3.17;;;;;;;-145.76;100.00;65039.31;4889811;28;20102;-76
2022/01/20 10:47:28;;;;;;;16.00;2.53;;;;;;;-145.76;100.00;65039.31;4924111;28;20031;-75
2022/01/20 10:49:55;;;;;;;14.50;2.60;;;;;;;-145.76;100.00;65039.31;4906727;28;20075;-77
2022/01/20 10:52:22;;;;;;;22.38;3.22;;;;;;;-145.76;100.00;65039.31;4922030;28;20034;-76
2022/01/20 10:54:53;;;;;;;15.35;2.72;;;;;;;-145.76;100.00;65039.31;4922292;28;20674;-73
2022/01/20 10:57:30;;;;;;;21.48;2.92;;;;;;;-145.76;100.00;65039.31;4908011;28;20043;-73
2022/01/20 11:00:02;;;;;;;23.05;3.30;;;;;;;-145.76;100.00;65039.31;4925139;28;20050;-73
2022/01/20 11:02:29;;;;;;;20.92;3.30;;;;;;;-145.76;100.00;65039.31;4911003;28;20082;-73
2022/01/20 11:04:58;;;;;;;23.42;3.55;;;;;;;-145.76;100.00;65039.31;4930097;28;20377;-71
2022/01/20 11:07:24;;;;;;;21.75;4.38;;;;;;;-145.76;100.00;65039.31;4918055;28;20050;-71
2022/01/20 11:09:56;;;;;;;18.58;3.45;;;;;;;-145.76;100.00;65039.31;4919847;28;20051;-72
2022/01/20 11:12:21;;;;;;;20.75;3.47;;;;;;;-145.76;100.00;65039.31;4928330;28;20031;-72
2022/01/20 11:14:49;;;;;;;29.25;4.70;;;;;;;-145.76;100.00;65039.31;4914183;28;20106;-71
2022/01/20 11:17:26;;;;;;;25.58;3.92;;;;;;;-145.76;100.00;65039.31;4912697;28;20436;-74
2022/01/20 11:19:51;;;;;;;21.38;3.90;;;;;;;-145.76;100.00;65039.31;4913906;28;21548;-72
2022/01/20 11:22:19;;;;;;;23.17;3.53;;;;;;;-145.76;100.00;65039.31;4927776;28;20053;-71
2022/01/20 11:24:55;;;;;;;17.25;3.28;;;;;;;-145.76;100.00;65039.31;4927468;28;20042;-72
2022/01/20 11:27:20;;;;;;;16.00;3.17;;;;;;;-145.76;100.00;65039.31;4913416;28;20065;-72
2022/01/20 11:29:50;;;;;;;23.92;3.42;;;;;;;-145.76;100.00;65039.31;4928626;28;20043;-72
2022/01/20 11:32:21;;;;;;;26.60;4.45;;;;;;;-145.76;100.00;65039.31;4912362;28;20083;-71
2022/01/20 11:35:04;;;;;;;17.73;3.10;;;;;;;-145.76;100.00;65039.31;4929831;28;20034;-73
2022/01/20 11:37:34;;;;;;;14.45;3.05;;;;;;;-145.76;100.00;65039.31;4922091;28;20054;-72
2022/01/20 11:40:29;;;;;;;17.13;3.30;;;;;;;-145.76;100.00;65039.31;4921012;28;20080;-72
2022/01/20 11:43:10;;;;;;;26.80;3.33;;;;;;;-145.76;100.00;65039.31;4925341;28;20045;-73
2022/01/20 11:46:01;;;;;;;19.30;3.53;;;;;;;-145.76;100.00;65039.31;4932510;28;20061;-72
2022/01/20 11:48:26;;;;;;;19.25;3.20;;;;;;;-145.76;100.00;65039.31;4931407;28;20108;-72
2022/01/20 11:51:22;;;;;;;21.50;3.08;;;;;;;-145.76;100.00;65039.31;4913721;28;20050;-71
2022/01/20 11:54:02;;;;;;;21.85;3.78;;;;;;;-145.76;100.00;65039.31;4921568;28;20186;-70
2022/01/20 11:56:35;;;;;;;20.10;4.05;;;;;;;-145.76;100.00;65039.31;4914063;28;20051;-73